Time;durP1;ratioP1;P1;durP2;ratioP2;P2;SDS_P1;SDS_P2;PMS_P1;PMS_P2;Temp;Humidity;BMP_temperature;BMP_pressure;BME280_temperature;BME280_humidity;BME280_pressure;Samples;Min_cycle;Max_cycle;Signal;HPM_P1;HPM_P2
2024/02/05 00:01:19;;;;;;;19.90;2.73;;;11.40;99.90;;;;;;5063399;28;20249;-81
2024/02/05 00:03:45;;;;;;;18.63;2.65;;;11.40;99.90;;;;;;5081309;28;20161;-81
2024/02/05 00:06:12;;;;;;;19.00;3.00;;;11.40;99.90;;;;;;5063624;28;20164;-81
2024/02/05 00:08:41;;;;;;;20.45;2.78;;;11.40;99.90;;;;;;5081489;28;20180;-82
2024/02/05 00:11:07;;;;;;;21.20;2.67;;;11.40;99.90;;;;;;5064004;28;20205;-82
2024/02/05 00:13:33;;;;;;;20.00;2.63;;;11.40;99.90;;;;;;5065292;28;20172;-80
2024/02/05 00:15:59;;;;;;;17.73;2.70;;;11.40;99.90;;;;;;5064179;28;20199;-81
2024/02/05 00:18:25;;;;;;;14.60;1.83;;;11.40;99.90;;;;;;5081399;28;20415;-81
2024/02/05 00:20:51;;;;;;;20.50;3.30;;;11.40;99.90;;;;;;5083926;28;20599;-81
2024/02/05 00:23:17;;;;;;;16.60;2.05;;;11.40;99.90;;;;;;5082329;28;20403;-81
2024/02/05 00:25:43;;;;;;;17.60;2.40;;;11.40;99.90;;;;;;5064088;28;20518;-81
2024/02/05 00:28:12;;;;;;;20.73;2.83;;;11.40;99.90;;;;;;5082045;28;20192;-80
2024/02/05 00:30:38;;;;;;;17.35;2.33;;;11.40;99.90;;;;;;5082250;28;20502;-82
2024/02/05 00:33:05;;;;;;;18.10;2.83;;;11.40;99.90;;;;;;5082185;28;20176;-81
2024/02/05 00:35:31;;;;;;;19.40;2.33;;;11.40;99.90;;;;;;5081787;28;20450;-80
2024/02/05 00:37:57;;;;;;;21.50;3.47;;;11.40;99.90;;;;;;5082706;28;20581;-82
2024/02/05 00:40:23;;;;;;;20.45;2.45;;;11.40;99.90;;;;;;5066409;28;20474;-82
2024/02/05 00:42:49;;;;;;;22.60;3.27;;;11.40;99.90;;;;;;5080792;28;20199;-82
2024/02/05 00:45:16;;;;;;;26.83;2.80;;;11.40;99.90;;;;;;5082959;28;20165;-81
2024/02/05 00:47:44;;;;;;;16.90;2.08;;;11.40;99.90;;;;;;5082639;28;20191;-82
2024/02/05 00:50:10;;;;;;;19.65;3.05;;;11.40;99.90;;;;;;5082414;28;20218;-80
2024/02/05 00:52:36;;;;;;;28.53;4.30;;;11.40;99.90;;;;;;5081935;28;20172;-82
2024/02/05 00:55:01;;;;;;;17.00;2.20;;;11.40;99.90;;;;;;5082895;28;20529;-80
2024/02/05 00:57:29;;;;;;;20.90;2.87;;;11.40;99.90;;;;;;5083323;28;20680;-82
2024/02/05 00:59:58;;;;;;;25.70;2.95;;;11.50;99.90;;;;;;5083921;28;20156;-82
2024/02/05 01:02:24;;;;;;;26.30;3.80;;;11.40;99.90;;;;;;5083463;28;20168;-82
2024/02/05 01:04:50;;;;;;;17.67;2.60;;;11.40;99.90;;;;;;5081276;28;20164;-80
2024/02/05 01:07:16;;;;;;;24.00;3.93;;;11.50;99.90;;;;;;5082443;28;20274;-80
2024/02/05 01:09:42;;;;;;;19.23;2.85;;;11.50;99.90;;;;;;5083503;28;20251;-82
2024/02/05 01:12:08;;;;;;;18.93;3.10;;;11.50;99.90;;;;;;5083663;28;20203;-82
2024/02/05 01:14:34;;;;;;;21.83;3.25;;;11.50;99.90;;;;;;5083263;28;20255;-80
2024/02/05 01:17:00;;;;;;;25.98;3.55;;;11.40;99.90;;;;;;5083701;28;20192;-82
2024/02/05 01:19:26;;;;;;;19.50;2.63;;;11.40;99.90;;;;;;5083626;28;20156;-80
2024/02/05 01:21:52;;;;;;;20.93;2.53;;;11.40;99.90;;;;;;5081881;28;20168;-81
2024/02/05 01:24:18;;;;;;;19.40;2.87;;;11.40;99.90;;;;;;5083849;28;20407;-81
2024/02/05 01:26:44;;;;;;;22.80;3.30;;;11.50;99.90;;;;;;5087128;28;20190;-80
2024/02/05 01:29:09;;;;;;;28.60;3.50;;;11.50;99.90;;;;;;5069244;28;20440;-82
2024/02/05 01:31:36;;;;;;;21.50;2.87;;;11.50;99.90;;;;;;5088636;28;20407;-82
2024/02/05 01:34:02;;;;;;;20.42;3.17;;;11.50;99.90;;;;;;5086759;28;20671;-82
2024/02/05 01:36:28;;;;;;;25.23;3.47;;;11.50;99.90;;;;;;5069330;28;20165;-82
2024/02/05 01:38:55;;;;;;;25.67;3.22;;;11.50;99.90;;;;;;5086820;28;20176;-82
2024/02/05 01:41:22;;;;;;;18.30;2.95;;;11.40;99.90;;;;;;5068671;28;20190;-81
2024/02/05 01:43:47;;;;;;;23.15;3.55;;;11.50;99.90;;;;;;5088017;28;20168;-82
2024/02/05 01:46:16;;;;;;;25.70;3.70;;;11.40;99.90;;;;;;5087354;28;20642;-82
2024/02/05 01:48:44;;;;;;;29.55;2.75;;;11.40;99.90;;;;;;5089604;28;20263;-82
2024/02/05 01:51:16;;;;;;;26.00;3.35;;;11.40;99.90;;;;;;5086898;28;20561;-82
2024/02/05 01:53:43;;;;;;;22.67;4.00;;;11.40;99.90;;;;;;5084950;28;20164;-82
2024/02/05 01:56:10;;;;;;;24.23;3.90;;;11.40;99.90;;;;;;5086216;28;20556;-81
2024/02/05 01:58:39;;;;;;;33.35;3.05;;;11.40;99.90;;;;;;5087914;28;20180;-82
2024/02/05 02:01:06;;;;;;;27.95;3.55;;;11.40;99.90;;;;;;5089027;28;20164;-80
2024/02/05 02:03:34;;;;;;;24.58;4.05;;;11.40;99.90;;;;;;5088456;28;20157;-82
2024/02/05 02:06:01;;;;;;;18.98;2.72;;;11.40;99.90;;;;;;5087416;28;20168;-82
2024/02/05 02:08:28;;;;;;;20.90;3.33;;;11.40;99.90;;;;;;5086053;28;20272;-82
2024/02/05 02:10:54;;;;;;;21.95;4.18;;;11.40;99.90;;;;;;5068668;28;20165;-81
2024/02/05 02:13:19;;;;;;;27.87;4.30;;;11.40;99.90;;;;;;5086459;28;20536;-82
2024/02/05 02:15:48;;;;;;;28.27;3.90;;;11.40;99.90;;;;;;5088850;28;20194;-82
2024/02/05 02:18:15;;;;;;;22.85;3.13;;;11.40;99.90;;;;;;5068552;28;20184;-81
2024/02/05 02:20:45;;;;;;;24.65;3.42;;;11.40;99.90;;;;;;5088343;28;20161;-81
2024/02/05 02:23:29;;;;;;;18.08;3.35;;;11.40;99.90;;;;;;5086806;28;20156;-81
2024/02/05 02:25:58;;;;;;;29.77;3.65;;;11.40;99.90;;;;;;5085956;28;20149;-81
2024/02/05 02:28:24;;;;;;;25.13;4.40;;;11.40;99.90;;;;;;5086620;28;20184;-82
2024/02/05 02:30:51;;;;;;;28.67;4.83;;;11.40;99.90;;;;;;5086577;28;20167;-82
2024/02/05 02:33:25;;;;;;;21.08;3.28;;;11.40;99.90;;;;;;5086915;28;20555;-81
2024/02/05 02:35:57;;;;;;;23.35;3.35;;;11.40;99.90;;;;;;5086398;28;20204;-82
2024/02/05 02:39:06;;;;;;;25.45;3.72;;;11.40;99.90;;;;;;5083988;28;20196;-82
2024/02/05 02:41:36;;;;;;;17.65;2.50;;;11.40;99.90;;;;;;5058074;28;20173;-81
2024/02/05 02:44:02;;;;;;;32.08;3.90;;;11.40;99.90;;;;;;5086877;28;20178;-82
2024/02/05 02:46:29;;;;;;;33.97;4.35;;;11.40;99.90;;;;;;5087573;28;20184;-82
2024/02/05 02:48:55;;;;;;;30.90;3.95;;;11.40;99.90;;;;;;5086294;28;20172;-82
2024/02/05 02:51:21;;;;;;;18.58;3.17;;;11.40;99.90;;;;;;5085796;28;20160;-83
2024/02/05 02:53:47;;;;;;;20.58;3.60;;;11.30;99.90;;;;;;5067891;28;20549;-83
2024/02/05 02:56:13;;;;;;;23.77;2.87;;;11.40;99.90;;;;;;5084556;28;20164;-82
2024/02/05 02:58:39;;;;;;;17.80;3.10;;;11.30;99.90;;;;;;5085032;28;20183;-82
2024/02/05 03:01:04;;;;;;;27.83;3.73;;;11.30;99.90;;;;;;5068296;28;20414;-82
2024/02/05 03:03:30;;;;;;;18.87;3.17;;;11.30;99.90;;;;;;5086380;28;20161;-82
2024/02/05 03:05:59;;;;;;;21.53;3.50;;;11.30;99.90;;;;;;5087973;28;20176;-82
2024/02/05 03:08:25;;;;;;;24.17;4.32;;;11.30;99.90;;;;;;5068489;28;20936;-82
2024/02/05 03:10:50;;;;;;;19.10;2.73;;;11.30;99.90;;;;;;5087502;28;20217;-82
2024/02/05 03:13:18;;;;;;;34.97;4.40;;;11.30;99.90;;;;;;5084284;28;20629;-82
2024/02/05 03:15:43;;;;;;;20.98;3.15;;;11.30;99.90;;;;;;5087440;28;20850;-82
2024/02/05 03:18:10;;;;;;;27.27;3.63;;;11.30;99.90;;;;;;5085447;28;20203;-82
2024/02/05 03:20:41;;;;;;;31.00;3.95;;;11.30;99.90;;;;;;5087983;28;20160;-82
2024/02/05 03:23:10;;;;;;;24.13;3.17;;;11.30;99.90;;;;;;5084087;28;20141;-80
2024/02/05 03:25:40;;;;;;;25.52;3.45;;;11.30;99.90;;;;;;5063145;28;20514;-81
2024/02/05 03:28:09;;;;;;;19.70;3.90;;;11.30;99.90;;;;;;5066617;28;20208;-83
2024/02/05 03:30:45;;;;;;;27.20;4.25;;;11.30;99.90;;;;;;5065666;28;20542;-81
2024/02/05 03:33:14;;;;;;;23.77;3.08;;;11.30;99.90;;;;;;5067676;28;20174;-83
2024/02/05 03:35:40;;;;;;;26.15;3.60;;;11.30;99.90;;;;;;5084536;28;20727;-82
2024/02/05 03:38:06;;;;;;;29.67;3.33;;;11.30;99.90;;;;;;5069899;28;20212;-82
2024/02/05 03:40:31;;;;;;;23.63;3.88;;;11.30;99.90;;;;;;5090169;28;20165;-82
2024/02/05 03:43:00;;;;;;;21.57;4.20;;;11.30;99.90;;;;;;5069674;28;20233;-82
2024/02/05 03:45:28;;;;;;;20.38;3.38;;;11.30;99.90;;;;;;5067682;28;20179;-82
2024/02/05 03:47:57;;;;;;;20.33;2.75;;;11.30;99.90;;;;;;5068801;28;20637;-82
2024/02/05 03:50:23;;;;;;;29.17;4.00;;;11.30;99.90;;;;;;5087506;28;20173;-83
2024/02/05 03:52:48;;;;;;;28.43;4.03;;;11.30;99.90;;;;;;5083951;28;20176;-82
2024/02/05 03:55:21;;;;;;;25.93;3.57;;;11.30;99.90;;;;;;5051905;28;20199;-82
2024/02/05 03:58:00;;;;;;;26.50;3.97;;;11.30;99.90;;;;;;5087667;28;20183;-81
2024/02/05 04:00:28;;;;;;;23.67;3.55;;;11.30;99.90;;;;;;5086845;28;20152;-82
2024/02/05 04:02:56;;;;;;;25.23;3.40;;;11.30;99.90;;;;;;5069128;28;20165;-82
2024/02/05 04:05:21;;;;;;;23.77;3.67;;;11.30;99.90;;;;;;5068285;28;20660;-82
2024/02/05 04:07:51;;;;;;;26.03;3.57;;;11.30;99.90;;;;;;5085817;28;20192;-82
2024/02/05 04:10:24;;;;;;;21.67;3.08;;;11.30;99.90;;;;;;5085569;28;20480;-83
2024/02/05 04:12:50;;;;;;;21.80;3.25;;;11.30;99.90;;;;;;5084955;28;20233;-81
2024/02/05 04:15:15;;;;;;;22.87;3.60;;;11.30;99.90;;;;;;5083471;28;20192;-82
2024/02/05 04:17:41;;;;;;;23.57;4.27;;;11.20;99.90;;;;;;5084659;28;20266;-81
2024/02/05 04:20:07;;;;;;;26.50;5.13;;;11.30;99.90;;;;;;5082456;28;20188;-82
2024/02/05 04:22:33;;;;;;;35.30;4.50;;;11.30;99.90;;;;;;5083766;28;20164;-81
2024/02/05 04:24:59;;;;;;;29.95;3.50;;;11.20;99.90;;;;;;5084053;28;20815;-82
2024/02/05 04:27:24;;;;;;;22.03;3.03;;;11.20;99.90;;;;;;5082120;28;20195;-81
2024/02/05 04:29:50;;;;;;;24.30;3.47;;;11.20;99.90;;;;;;5084925;28;20165;-80
2024/02/05 04:32:16;;;;;;;21.47;3.50;;;11.20;99.90;;;;;;5081854;28;20172;-82
2024/02/05 04:34:41;;;;;;;22.60;3.50;;;11.20;99.90;;;;;;5065055;28;20266;-80
2024/02/05 04:37:07;;;;;;;26.60;3.07;;;11.30;99.90;;;;;;5083682;28;20222;-81
2024/02/05 04:39:33;;;;;;;27.60;3.93;;;11.20;99.90;;;;;;5065873;28;20186;-81
2024/02/05 04:42:05;;;;;;;25.30;4.53;;;11.20;99.90;;;;;;5084351;28;20414;-83
2024/02/05 04:44:30;;;;;;;28.95;3.58;;;11.20;99.90;;;;;;5064932;28;20154;-81
2024/02/05 04:46:56;;;;;;;22.57;3.87;;;11.20;99.90;;;;;;5083634;28;20187;-82
2024/02/05 04:49:21;;;;;;;26.20;3.47;;;11.20;99.90;;;;;;5083548;28;20168;-82
2024/02/05 04:51:49;;;;;;;21.97;3.80;;;11.20;99.90;;;;;;5065233;28;20172;-82
2024/02/05 04:54:15;;;;;;;28.88;3.53;;;11.20;99.90;;;;;;5084614;28;20195;-82
2024/02/05 04:56:40;;;;;;;26.67;6.27;;;11.20;99.90;;;;;;5086933;28;20160;-82
2024/02/05 04:59:06;;;;;;;20.07;3.47;;;11.20;99.90;;;;;;5067943;28;20194;-81
2024/02/05 05:01:32;;;;;;;26.67;3.73;;;11.20;99.90;;;;;;5087282;28;20165;-82
2024/02/05 05:03:57;;;;;;;26.23;4.17;;;11.20;99.90;;;;;;5089354;28;20165;-82
2024/02/05 05:06:23;;;;;;;24.37;3.77;;;11.20;99.90;;;;;;5090064;28;20643;-82
2024/02/05 05:08:49;;;;;;;32.43;4.27;;;11.20;99.90;;;;;;5091182;28;20445;-81
2024/02/05 05:11:24;;;;;;;25.43;3.57;;;11.20;99.90;;;;;;5072783;28;20160;-82
2024/02/05 05:13:50;;;;;;;33.33;4.25;;;11.20;99.90;;;;;;5070193;28;20168;-81
2024/02/05 05:16:17;;;;;;;26.70;6.00;;;11.20;99.90;;;;;;5087491;28;20175;-81
2024/02/05 05:18:43;;;;;;;28.63;4.80;;;11.20;99.90;;;;;;5087199;28;20545;-81
2024/02/05 05:21:09;;;;;;;21.20;4.10;;;11.20;99.90;;;;;;5070002;28;20192;-82
2024/02/05 05:23:35;;;;;;;27.20;4.85;;;11.20;99.90;;;;;;5072369;28;20164;-82
2024/02/05 05:26:00;;;;;;;22.77;4.37;;;11.10;99.90;;;;;;5089251;28;20168;-82
2024/02/05 05:28:26;;;;;;;26.20;4.00;;;11.20;99.90;;;;;;5070381;28;20192;-82
2024/02/05 05:30:51;;;;;;;19.77;3.80;;;11.20;99.90;;;;;;5088338;28;20691;-83
2024/02/05 05:33:17;;;;;;;28.23;4.00;;;11.10;99.90;;;;;;5086327;28;20168;-82
2024/02/05 05:35:43;;;;;;;25.70;3.90;;;11.10;99.90;;;;;;5085061;28;20193;-82
2024/02/05 05:38:11;;;;;;;28.27;4.13;;;11.10;99.90;;;;;;5086627;28;20197;-82
2024/02/05 05:40:37;;;;;;;24.50;4.10;;;11.10;99.90;;;;;;5074584;28;20168;-81
2024/02/05 05:43:02;;;;;;;25.40;4.97;;;11.10;99.90;;;;;;5070400;28;20184;-82
2024/02/05 05:45:29;;;;;;;29.20;4.30;;;11.10;99.90;;;;;;5066716;28;20172;-82
2024/02/05 05:47:55;;;;;;;28.63;4.10;;;11.10;99.90;;;;;;5069056;28;20225;-81
2024/02/05 05:50:21;;;;;;;24.17;4.00;;;11.10;99.90;;;;;;5084274;28;20169;-81
2024/02/05 05:52:46;;;;;;;29.90;3.93;;;11.10;99.90;;;;;;5069050;28;20426;-80
2024/02/05 05:55:13;;;;;;;21.40;3.47;;;11.10;99.90;;;;;;5086629;28;20553;-81
2024/02/05 05:57:39;;;;;;;31.38;4.45;;;11.10;99.90;;;;;;5068125;28;20198;-81
2024/02/05 06:00:06;;;;;;;27.40;3.80;;;11.00;99.90;;;;;;5068181;28;20188;-82
2024/02/05 06:02:31;;;;;;;23.38;4.35;;;11.00;99.90;;;;;;5087291;28;20164;-81
2024/02/05 06:04:58;;;;;;;24.50;4.73;;;11.00;99.90;;;;;;5085045;28;20167;-80
2024/02/05 06:07:23;;;;;;;31.23;4.55;;;11.10;99.90;;;;;;5083641;28;20211;-82
2024/02/05 06:09:49;;;;;;;35.30;4.10;;;11.10;99.90;;;;;;5085786;28;20165;-82
2024/02/05 06:12:16;;;;;;;24.73;3.40;;;11.10;99.90;;;;;;5084639;28;20183;-81
2024/02/05 06:14:43;;;;;;;24.30;4.70;;;11.10;99.90;;;;;;5086210;28;20195;-81
2024/02/05 06:17:09;;;;;;;17.27;3.35;;;11.00;99.90;;;;;;5086073;28;20202;-81
2024/02/05 06:19:35;;;;;;;20.83;3.63;;;11.10;99.90;;;;;;5084978;28;20220;-80
2024/02/05 06:22:01;;;;;;;32.10;4.30;;;11.10;99.90;;;;;;5066242;28;20418;-80
2024/02/05 06:24:27;;;;;;;25.17;3.67;;;11.10;99.90;;;;;;5084134;28;20661;-81
2024/02/05 06:26:53;;;;;;;27.83;5.07;;;11.10;99.90;;;;;;5084103;28;20187;-82
2024/02/05 06:29:19;;;;;;;25.93;4.10;;;11.10;99.90;;;;;;5086348;28;20701;-81
2024/02/05 06:31:45;;;;;;;30.63;4.60;;;11.10;99.90;;;;;;5067887;28;20596;-81
2024/02/05 06:34:10;;;;;;;26.57;4.60;;;11.10;99.90;;;;;;5068843;28;20172;-82
2024/02/05 06:36:36;;;;;;;23.83;3.50;;;11.00;99.90;;;;;;5068759;28;20176;-81
2024/02/05 06:39:03;;;;;;;24.77;4.20;;;11.00;99.90;;;;;;5068024;28;20186;-82
2024/02/05 06:41:30;;;;;;;28.73;3.75;;;11.00;99.90;;;;;;5087538;28;20226;-81
2024/02/05 06:43:56;;;;;;;22.95;4.43;;;11.00;99.90;;;;;;5085894;28;20164;-82
2024/02/05 06:46:22;;;;;;;27.95;4.03;;;10.90;99.90;;;;;;5085585;28;20160;-80
2024/02/05 06:48:48;;;;;;;24.00;3.60;;;11.00;99.90;;;;;;5085326;28;20177;-79
2024/02/05 06:51:13;;;;;;;23.40;4.50;;;11.00;99.90;;;;;;5083382;28;20164;-81
2024/02/05 06:53:39;;;;;;;30.47;4.07;;;10.90;99.90;;;;;;5083035;28;20158;-81
2024/02/05 06:56:05;;;;;;;19.00;3.47;;;10.80;99.90;;;;;;5082760;28;20634;-81
2024/02/05 06:58:31;;;;;;;21.43;3.00;;;10.90;99.90;;;;;;5084619;28;20184;-81
2024/02/05 07:00:56;;;;;;;25.57;4.30;;;10.90;99.90;;;;;;5080574;28;20410;-81
2024/02/05 07:03:22;;;;;;;27.27;3.60;;;10.80;99.90;;;;;;5083205;28;20156;-81
2024/02/05 07:05:48;;;;;;;25.97;4.17;;;10.80;99.90;;;;;;5065136;28;20168;-82
2024/02/05 07:08:13;;;;;;;20.43;3.07;;;10.80;99.90;;;;;;5082306;28;20673;-81
2024/02/05 07:10:39;;;;;;;25.10;3.13;;;10.70;99.90;;;;;;5084552;28;20175;-83
2024/02/05 07:13:05;;;;;;;21.13;3.30;;;10.70;99.90;;;;;;5082812;28;20161;-82
2024/02/05 07:15:34;;;;;;;26.43;4.03;;;10.70;99.90;;;;;;5083517;28;20473;-82
2024/02/05 07:17:59;;;;;;;21.13;3.58;;;10.60;99.90;;;;;;5082215;28;20253;-83
2024/02/05 07:20:25;;;;;;;31.70;4.97;;;10.60;99.90;;;;;;5063044;28;20184;-81
2024/02/05 07:22:53;;;;;;;19.20;3.40;;;10.60;99.90;;;;;;5081340;28;20153;-81
2024/02/05 07:25:19;;;;;;;18.40;2.80;;;10.60;99.90;;;;;;5081717;28;20165;-82
2024/02/05 07:27:45;;;;;;;23.60;3.75;;;10.60;99.90;;;;;;5083643;28;20188;-82
2024/02/05 07:30:11;;;;;;;20.13;2.67;;;10.60;99.90;;;;;;5079800;28;20167;-81
2024/02/05 07:32:37;;;;;;;22.45;3.20;;;10.50;99.90;;;;;;5085329;28;20243;-82
2024/02/05 07:35:03;;;;;;;27.73;3.17;;;10.50;99.90;;;;;;5083720;28;20219;-82
2024/02/05 07:37:28;;;;;;;24.37;3.97;;;10.50;99.90;;;;;;5063761;28;20454;-79
2024/02/05 07:39:55;;;;;;;31.00;2.73;;;10.50;99.90;;;;;;5083747;28;20371;-81
2024/02/05 07:42:20;;;;;;;21.33;3.17;;;10.50;99.90;;;;;;5082784;28;20161;-81
2024/02/05 07:44:46;;;;;;;24.53;3.57;;;10.50;99.90;;;;;;5082554;28;20614;-82
2024/02/05 07:47:12;;;;;;;34.33;4.20;;;10.50;99.90;;;;;;5065561;28;20214;-81
2024/02/05 07:49:40;;;;;;;19.83;3.23;;;10.50;99.90;;;;;;5084759;28;20168;-80
2024/02/05 07:52:05;;;;;;;21.80;3.80;;;10.50;99.90;;;;;;5080431;28;20195;-80
2024/02/05 07:54:31;;;;;;;26.93;3.50;;;10.50;99.90;;;;;;5081960;28;20184;-81
2024/02/05 07:57:02;;;;;;;21.60;3.57;;;10.50;99.90;;;;;;5066076;28;20180;-81
2024/02/05 07:59:28;;;;;;;22.45;5.45;;;10.40;99.90;;;;;;5064007;28;20168;-82
2024/02/05 08:01:54;;;;;;;18.98;2.50;;;10.40;99.90;;;;;;5085134;28;20243;-81
2024/02/05 08:04:19;;;;;;;20.33;3.53;;;10.50;99.90;;;;;;5084125;28;20164;-82
2024/02/05 08:06:45;;;;;;;24.90;3.40;;;10.50;99.90;;;;;;5084514;28;20168;-82
2024/02/05 08:09:12;;;;;;;19.40;3.03;;;10.40;99.90;;;;;;5066867;28;20641;-81
2024/02/05 08:11:38;;;;;;;30.95;5.22;;;10.40;99.90;;;;;;5082649;28;20168;-81
2024/02/05 08:14:04;;;;;;;27.27;3.13;;;10.40;99.90;;;;;;5084206;28;20546;-82
2024/02/05 08:16:29;;;;;;;23.53;3.40;;;10.40;99.90;;;;;;5085131;28;20420;-81
2024/02/05 08:18:55;;;;;;;23.87;3.10;;;10.40;99.90;;;;;;5085661;28;20904;-81
2024/02/05 08:21:21;;;;;;;24.80;3.77;;;10.50;99.90;;;;;;5084226;28;20167;-80
2024/02/05 08:23:50;;;;;;;18.17;2.93;;;10.40;99.90;;;;;;5085261;28;20522;-82
2024/02/05 08:26:19;;;;;;;21.13;3.03;;;10.50;99.90;;;;;;5085254;28;20164;-83
2024/02/05 08:28:46;;;;;;;25.98;3.80;;;10.40;99.90;;;;;;5086526;28;20553;-82
2024/02/05 08:31:12;;;;;;;21.05;2.50;;;10.50;99.90;;;;;;5068890;28;20173;-81
2024/02/05 08:33:37;;;;;;;17.83;3.17;;;10.50;99.90;;;;;;5086380;28;20256;-81
2024/02/05 08:36:03;;;;;;;19.50;3.07;;;10.50;99.90;;;;;;5089534;28;20192;-82
2024/02/05 08:38:29;;;;;;;25.23;4.17;;;10.50;99.90;;;;;;5073488;28;20211;-80
2024/02/05 08:40:56;;;;;;;26.20;3.17;;;10.50;99.90;;;;;;5090600;28;20500;-80
2024/02/05 08:43:22;;;;;;;30.95;4.05;;;10.50;99.90;;;;;;5073332;28;20165;-81
2024/02/05 08:45:48;;;;;;;17.50;2.90;;;10.50;99.90;;;;;;5087757;28;20661;-81
2024/02/05 08:48:14;;;;;;;21.15;3.90;;;10.50;99.90;;;;;;5071241;28;20449;-82
2024/02/05 08:50:39;;;;;;;21.67;3.00;;;10.60;99.90;;;;;;5088792;28;20188;-82
2024/02/05 08:53:06;;;;;;;21.40;3.37;;;10.60;99.90;;;;;;5087921;28;20168;-82
2024/02/05 08:55:32;;;;;;;19.77;3.10;;;10.60;99.90;;;;;;5073210;28;20275;-81
2024/02/05 08:57:59;;;;;;;19.75;3.28;;;10.60;99.90;;;;;;5090186;28;20184;-82
2024/02/05 09:00:24;;;;;;;21.42;3.72;;;10.70;99.90;;;;;;5089022;28;20236;-82
2024/02/05 09:02:53;;;;;;;24.50;3.83;;;10.70;99.90;;;;;;5087899;28;20487;-82
2024/02/05 09:05:19;;;;;;;26.20;3.58;;;10.70;99.90;;;;;;5088857;28;20165;-82
2024/02/05 09:07:45;;;;;;;18.60;2.95;;;10.70;99.90;;;;;;5088271;28;20184;-80
2024/02/05 09:10:11;;;;;;;21.58;3.15;;;10.80;99.90;;;;;;5071786;28;20264;-82
2024/02/05 09:12:37;;;;;;;19.40;3.03;;;10.80;99.90;;;;;;5090320;28;20169;-81
2024/02/05 09:15:03;;;;;;;29.90;3.97;;;10.80;99.90;;;;;;5069765;28;20192;-82
2024/02/05 09:17:30;;;;;;;28.48;4.72;;;10.80;99.90;;;;;;5089040;28;20189;-81
2024/02/05 09:19:55;;;;;;;30.85;3.83;;;10.80;99.90;;;;;;5088352;28;20172;-81
2024/02/05 09:22:21;;;;;;;24.50;4.60;;;10.80;99.90;;;;;;5089495;28;20220;-82
2024/02/05 09:24:47;;;;;;;21.20;3.30;;;10.90;99.90;;;;;;5089517;28;20167;-81
2024/02/05 09:27:13;;;;;;;25.30;2.93;;;10.90;99.90;;;;;;5089102;28;20195;-80
2024/02/05 09:29:38;;;;;;;15.80;2.07;;;10.90;99.90;;;;;;5088168;28;20191;-81
2024/02/05 09:32:05;;;;;;;22.90;2.83;;;10.90;99.90;;;;;;5087268;28;20165;-82
2024/02/05 09:34:31;;;;;;;26.05;3.60;;;11.00;99.90;;;;;;5087445;28;20195;-82
2024/02/05 09:36:57;;;;;;;22.98;4.78;;;11.00;99.90;;;;;;5089531;28;20562;-80
2024/02/05 09:39:23;;;;;;;19.00;3.30;;;11.10;99.90;;;;;;5069127;28;20238;-82
2024/02/05 09:41:51;;;;;;;32.47;4.18;;;11.10;99.90;;;;;;5085765;28;20399;-81
2024/02/05 09:44:17;;;;;;;27.38;3.95;;;11.10;99.90;;;;;;5086968;28;20253;-81
2024/02/05 09:46:49;;;;;;;23.40;3.90;;;11.10;99.90;;;;;;5085465;28;20175;-81
2024/02/05 09:49:17;;;;;;;20.73;2.70;;;11.20;99.90;;;;;;5088774;28;20141;-80
2024/02/05 09:51:46;;;;;;;19.92;3.40;;;11.20;99.90;;;;;;5086133;28;20216;-81
2024/02/05 09:54:14;;;;;;;21.27;2.72;;;11.20;99.90;;;;;;5086989;28;20623;-81
2024/02/05 09:56:40;;;;;;;27.02;3.83;;;11.20;99.90;;;;;;5087621;28;20149;-81
2024/02/05 09:59:05;;;;;;;17.83;2.70;;;11.30;99.90;;;;;;5086553;28;20172;-82
2024/02/05 10:01:32;;;;;;;22.93;3.50;;;11.40;99.90;;;;;;5087105;28;20485;-81
2024/02/05 10:03:58;;;;;;;27.15;3.55;;;11.40;99.90;;;;;;5087155;28;20153;-81
2024/02/05 10:06:27;;;;;;;20.13;2.72;;;11.40;99.90;;;;;;5088581;28;20168;-81
2024/02/05 10:09:07;;;;;;;23.35;3.90;;;11.40;99.90;;;;;;5069571;28;20186;-81
2024/02/05 10:11:47;;;;;;;20.77;3.08;;;11.40;99.90;;;;;;5087297;28;20232;-81
2024/02/05 10:14:16;;;;;;;20.90;3.00;;;11.50;99.90;;;;;;5087975;28;20247;-81
2024/02/05 10:16:46;;;;;;;20.00;3.25;;;11.60;99.90;;;;;;5090966;28;20157;-83
2024/02/05 10:19:11;;;;;;;22.40;3.90;;;11.70;99.90;;;;;;5089083;28;20499;-82
2024/02/05 10:21:37;;;;;;;23.13;3.13;;;11.80;99.90;;;;;;5085807;28;20160;-81
2024/02/05 10:24:03;;;;;;;25.47;3.40;;;11.80;99.90;;;;;;5087550;28;20180;-83
2024/02/05 10:26:32;;;;;;;18.60;3.17;;;11.80;99.90;;;;;;5090688;28;20168;-82
2024/02/05 10:29:11;;;;;;;21.02;2.72;;;11.90;99.90;;;;;;5089356;28;20394;-82
2024/02/05 10:31:50;;;;;;;19.67;3.17;;;11.90;99.90;;;;;;5087875;28;20171;-81
2024/02/05 10:34:23;;;;;;;16.10;2.47;;;12.10;99.90;;;;;;5089387;28;20220;-83
2024/02/05 10:36:50;;;;;;;19.55;2.35;;;12.20;99.90;;;;;;5088457;28;20177;-81
2024/02/05 10:39:23;;;;;;;22.00;3.33;;;12.30;99.90;;;;;;5070253;28;20184;-82
2024/02/05 10:41:54;;;;;;;26.20;3.28;;;12.30;99.90;;;;;;5087285;28;20170;-82
2024/02/05 10:44:20;;;;;;;21.65;2.75;;;12.40;99.90;;;;;;5086836;28;20161;-81
2024/02/05 10:46:49;;;;;;;18.97;2.90;;;12.30;99.90;;;;;;5089095;28;20203;-81
2024/02/05 10:49:18;;;;;;;23.40;3.20;;;12.40;99.90;;;;;;5090258;28;20410;-82
2024/02/05 10:51:44;;;;;;;21.08;3.22;;;12.50;99.90;;;;;;5088432;28;20161;-81
2024/02/05 10:54:11;;;;;;;24.05;3.47;;;12.60;99.90;;;;;;5068385;28;20537;-83
2024/02/05 10:56:42;;;;;;;18.48;3.65;;;12.60;99.90;;;;;;5086511;28;20164;-81
2024/02/05 10:59:09;;;;;;;24.27;2.72;;;12.70;99.90;;;;;;5066939;28;20160;-82
2024/02/05 11:02:21;;;;;;;21.23;3.45;;;12.60;99.90;;;;;;5086245;28;20168;-82
2024/02/05 11:04:48;;;;;;;19.50;3.67;;;12.70;99.90;;;;;;5088197;28;20163;-82
2024/02/05 11:07:17;;;;;;;25.15;3.65;;;12.70;99.90;;;;;;5089171;28;20236;-83
2024/02/05 11:09:47;;;;;;;22.10;3.17;;;12.70;99.90;;;;;;5070228;28;20716;-81
2024/02/05 11:12:15;;;;;;;20.70;2.90;;;12.90;99.90;;;;;;5086895;28;20160;-82
2024/02/05 11:14:47;;;;;;;23.30;3.83;;;12.80;97.40;;;;;;5083874;28;20204;-81
2024/02/05 11:17:16;;;;;;;20.20;2.95;;;12.70;98.30;;;;;;5083431;28;20180;-81
2024/02/05 11:19:42;;;;;;;19.50;2.83;;;12.70;92.90;;;;;;5065726;28;20168;-82
2024/02/05 11:22:10;;;;;;;18.02;2.40;;;12.60;81.10;;;;;;5083063;28;20169;-81
2024/02/05 11:24:37;;;;;;;21.73;2.70;;;12.60;47.60;;;;;;5086354;28;20672;-82
2024/02/05 11:27:04;;;;;;;23.30;2.40;;;12.60;20.20;;;;;;5068199;28;20184;-82
2024/02/05 11:29:33;;;;;;;22.75;3.22;;;12.80;13.90;;;;;;5069307;28;20156;-83
2024/02/05 11:32:00;;;;;;;21.17;3.38;;;12.90;14.80;;;;;;5088845;28;20187;-81
2024/02/05 11:34:34;;;;;;;26.60;3.35;;;13.10;11.80;;;;;;5071819;28;20581;-83
2024/02/05 11:37:06;;;;;;;16.50;2.25;;;13.20;5.40;;;;;;5089770;28;20168;-83
2024/02/05 11:39:32;;;;;;;20.73;3.13;;;13.30;1.70;;;;;;5071797;28;20184;-82
2024/02/05 11:42:08;;;;;;;21.00;3.17;;;13.40;1.00;;;;;;5089644;28;20171;-83
2024/02/05 11:44:33;;;;;;;25.25;3.00;;;13.50;1.00;;;;;;5070706;28;20180;-83
2024/02/05 11:46:59;;;;;;;17.60;2.20;;;13.50;1.00;;;;;;5086311;28;20187;-82
2024/02/05 11:49:36;;;;;;;19.40;3.03;;;13.60;1.00;;;;;;5087971;28;20168;-82
2024/02/05 11:52:01;;;;;;;19.77;3.57;;;13.50;1.00;;;;;;5087967;28;20580;-82
2024/02/05 11:54:33;;;;;;;20.00;3.10;;;13.50;1.00;;;;;;5089349;28;20510;-83
2024/02/05 11:56:59;;;;;;;20.70;3.13;;;13.50;1.00;;;;;;5089687;28;20164;-81
2024/02/05 11:59:25;;;;;;;20.00;3.10;;;13.60;1.00;;;;;;5085615;28;20252;-82
2024/02/05 12:01:51;;;;;;;24.00;3.40;;;13.60;1.00;;;;;;5085060;28;20501;-83
2024/02/05 12:04:18;;;;;;;22.80;2.92;;;13.50;1.00;;;;;;5085840;28;20180;-82
2024/02/05 12:06:45;;;;;;;26.63;3.05;;;13.40;1.00;;;;;;5086409;28;20224;-82
2024/02/05 12:09:12;;;;;;;17.92;2.85;;;13.50;1.00;;;;;;5068592;28;20176;-83
2024/02/05 12:11:42;;;;;;;24.60;2.40;;;13.50;1.00;;;;;;5086839;28;20161;-83
2024/02/05 12:14:10;;;;;;;25.85;3.85;;;13.50;1.00;;;;;;5068299;28;20168;-84
2024/02/05 12:16:37;;;;;;;21.63;2.70;;;13.60;1.00;;;;;;5085680;28;20141;-82
2024/02/05 12:19:03;;;;;;;19.63;2.70;;;13.60;1.00;;;;;;5084845;28;20402;-82
2024/02/05 12:21:31;;;;;;;23.70;4.10;;;13.50;1.00;;;;;;5086373;28;20167;-82
2024/02/05 12:23:57;;;;;;;18.20;2.47;;;13.50;1.00;;;;;;5086427;28;20171;-81
2024/02/05 12:26:24;;;;;;;24.70;3.03;;;13.50;1.00;;;;;;5067232;28;20410;-82
2024/02/05 12:28:51;;;;;;;20.08;2.90;;;13.50;1.00;;;;;;5085977;28;20434;-82
2024/02/05 12:31:21;;;;;;;24.73;3.53;;;13.50;1.00;;;;;;5086503;28;20188;-82
2024/02/05 12:33:58;;;;;;;25.33;3.00;;;13.50;1.00;;;;;;5086156;28;20399;-82
2024/02/05 12:36:26;;;;;;;24.33;2.95;;;13.50;1.00;;;;;;5085265;28;20454;-82
2024/02/05 12:38:55;;;;;;;20.88;2.63;;;13.50;1.00;;;;;;5067546;28;20269;-81